Camp Pendleton, California
Current Conditions -  °F | °C
As of 5:10 AM on Thursday 30 Oct 2014 (Local Time) from KNFG Reporting Station
Overcast Overcast  
Wind Chill: 54°   Ceiling: 600
Heat Index: 54°   Visibility: 7mi
Dew Point: 50°   Wind: 5mph
Humidity: 86%   Direction: 40°NE
Pressure: 29.98"   Gusts: NA
Location:  33.3°N, 117.36°W
Report Text: KNFG 301210Z AUTO 04004KT 7SM OVC006 12/10 A2998 RMK AO2 T01220100 $
Loading
Personal Weather Stations






























Interactive Weather Map
Tropical Storm Tracking
New forecast layout! Learn more

10-Day Weather Forecast

Advertisements
Track Severe Weather on mobile